Tropical Cyclones
[Index]
Main Index Home Page Stock Weather Photos Extreme Storms Discussion Storm News and Storm Chasing Reports Tropical Cyclones / Hurricanes / Typhoons Weather Data and Links Wild Fires / Bushfires Weather Observation Techniques Weather Picture Catalogue Tornado Pictures and Reports Stock Video Footage and DVDs for sale
Season 1975-1976 Tropical Cyclone VANESSA Track Map
Season 1975-1976 Summaries: [BoM-AU] [JTWC-AU] [JTWC-SIO] [JTWC-SPAC] [JTWC-SH]
<<- Previous TC | JTWC 1975-1976 Season | Next TC ->>

click for intensity scale information  Lat/long Grid: Show Hide

 Date Labels: Show Hide

Joint Typhoon Warning Centre Cyclone Data

Name: VANESSA
Number: 915 / 7611

15 Jan 1976 00:00 UTC to 28 Jan 1976 00:00 UTC

    date/time    lat    long     hPa   cat  kts
1976-01-15 00   17.7   121.8                              
1976-01-15 06   18.1   121.3                              
1976-01-15 12   18.3   120.6                              
1976-01-15 18   18.4   119.4                              
1976-01-16 00   18.4   118.4                              
1976-01-16 06   18.3   118.1                              
1976-01-16 12   18.1   117.7                              
1976-01-16 18   18.1   117.4                              
1976-01-17 00   18.2   117.0                              
1976-01-17 06   18.0   116.5                              
1976-01-17 12   17.7   115.8                              
1976-01-17 18   17.8   115.1                              
1976-01-18 00   17.9   114.5                              
1976-01-18 06   17.7   114.0                              
1976-01-18 12   17.3   113.6                              
1976-01-18 18   16.7   113.5                              
1976-01-19 00   16.2   113.4                              
1976-01-19 06   15.9   113.0                              
1976-01-19 12   15.6   112.6                              
1976-01-19 18   15.3   112.1                              
1976-01-20 00   15.1   111.6                              
1976-01-20 06   14.9   111.4                              
1976-01-20 12   14.7   111.3                              
1976-01-20 18   14.5   111.2                              
1976-01-21 00   14.4   111.1                              
1976-01-21 06   14.4   110.8                              
1976-01-21 12   14.5   110.5                              
1976-01-21 18   14.9   110.4                              
1976-01-22 00   15.4   110.8                              
1976-01-22 06   15.5   111.6                              
1976-01-22 12   15.7   112.5                              
1976-01-22 18   16.2   113.2                              
1976-01-23 00   16.8   113.8                              
1976-01-23 06   17.0   114.3                              
1976-01-23 12   17.3   114.4                              
1976-01-23 18   17.7   114.1                              
1976-01-24 00   18.2   113.8                              
1976-01-24 06   18.7   113.6                              
1976-01-24 12   19.2   113.4                              
1976-01-24 18   19.7   113.3                              
1976-01-25 00   20.2   113.2                              
1976-01-25 06   21.0   112.8                              
1976-01-25 12   21.9   112.3                              
1976-01-25 18   22.6   111.6                              
1976-01-26 00   23.3   111.0                              
1976-01-26 06   24.1   110.7                              
1976-01-26 12   25.0   110.5                              
1976-01-26 18   25.9   110.3                              
1976-01-27 00   26.9   110.1                              
1976-01-27 06   27.9   110.3                              
1976-01-27 12   28.9   110.5                              
1976-01-27 18   30.2   110.5                              
1976-01-28 00   31.7   110.4                              
Winds are 1-min average.

Tropical cyclone tracks developed by Michael Bath using data from the Joint Typhoon Warning Centre Best Tracks and Google Maps.


[Australian Severe Weather index] [Copyright Notice] [Email Contacts] [Search This Site] [Privacy Policy]
Document: tropical_cyclone_vanessa.htm Updated: 18 September 2016